createdAt,value
2017-05-11T00:00:26.316Z,0
2017-05-11T00:01:25.958Z,0
2017-05-11T00:02:26.635Z,0
2017-05-11T00:03:26.641Z,0
2017-05-11T00:04:26.335Z,0
2017-05-11T00:05:26.702Z,0
2017-05-11T00:06:26.295Z,0
2017-05-11T00:07:26.618Z,0
2017-05-11T00:08:26.623Z,0
2017-05-11T00:09:26.649Z,0
2017-05-11T00:10:26.683Z,0
2017-05-11T00:11:26.072Z,0
2017-05-11T00:12:26.342Z,0
2017-05-11T00:13:26.356Z,0
2017-05-11T00:14:26.806Z,0
2017-05-11T00:15:26.723Z,0
2017-05-11T00:16:26.674Z,0
2017-05-11T00:17:26.366Z,0
2017-05-11T00:18:26.380Z,0
2017-05-11T00:19:26.694Z,0
2017-05-11T00:20:26.701Z,0
2017-05-11T00:21:26.707Z,0
2017-05-11T00:22:26.715Z,0
2017-05-11T00:23:26.408Z,0
2017-05-11T00:24:26.784Z,0
2017-05-11T00:25:26.832Z,0
2017-05-11T00:26:26.780Z,0
2017-05-11T00:27:26.431Z,0
2017-05-11T00:28:26.494Z,0
2017-05-11T00:29:26.814Z,0
2017-05-11T00:30:26.149Z,0
2017-05-11T00:31:26.201Z,0
2017-05-11T00:32:26.786Z,0
2017-05-11T00:33:26.797Z,0
2017-05-11T00:34:26.528Z,0
2017-05-11T00:35:26.490Z,0
2017-05-11T00:36:26.801Z,0
2017-05-11T00:37:26.553Z,0
2017-05-11T00:38:26.820Z,0
2017-05-11T00:39:26.832Z,0
2017-05-11T00:40:26.877Z,0
2017-05-11T00:41:26.823Z,0
2017-05-11T00:42:26.220Z,0
2017-05-11T00:43:26.854Z,0
2017-05-11T00:44:26.233Z,0
2017-05-11T00:45:25.932Z,0
2017-05-11T00:46:26.869Z,0
2017-05-11T00:47:26.920Z,0
2017-05-11T00:48:26.623Z,0
2017-05-11T00:49:26.893Z,0
2017-05-11T00:50:26.270Z,0
2017-05-11T00:51:26.636Z,0
2017-05-11T00:52:26.958Z,0
2017-05-11T00:53:26.920Z,0
2017-05-11T00:54:26.611Z,0
2017-05-11T00:55:26.615Z,0
2017-05-11T00:56:26.931Z,0
2017-05-11T00:57:26.936Z,0
2017-05-11T00:58:26.995Z,0
2017-05-11T00:59:26.636Z,0
2017-05-11T01:00:26.967Z,0
2017-05-11T01:01:26.967Z,0
2017-05-11T01:02:26.662Z,0
2017-05-11T01:03:26.675Z,0
2017-05-11T01:04:26.779Z,0
2017-05-11T01:05:26.995Z,0
2017-05-11T01:06:26.101Z,0
2017-05-11T01:07:26.380Z,0
2017-05-11T01:08:27.067Z,0
2017-05-11T01:09:27.015Z,0
2017-05-11T01:10:27.029Z,0
2017-05-11T01:11:26.718Z,0
2017-05-11T01:12:26.767Z,0
2017-05-11T01:13:26.734Z,0
2017-05-11T01:14:27.056Z,0
2017-05-11T01:15:26.428Z,0
2017-05-11T01:16:26.806Z,0
2017-05-11T01:17:26.551Z,0
2017-05-11T01:18:26.503Z,0
2017-05-11T01:19:27.134Z,0
2017-05-11T01:20:27.085Z,0
2017-05-11T01:21:27.191Z,0
2017-05-11T01:22:27.099Z,0
2017-05-11T01:23:26.847Z,0
2017-05-11T01:24:26.801Z,0
2017-05-11T01:25:27.112Z,0
2017-05-11T01:26:27.172Z,0
2017-05-11T01:27:26.873Z,0
2017-05-11T01:28:26.879Z,0
2017-05-11T01:29:27.144Z,0
2017-05-11T01:30:26.836Z,0
2017-05-11T01:31:27.153Z,0
2017-05-11T01:32:27.161Z,0
2017-05-11T01:33:26.550Z,0
2017-05-11T01:34:26.878Z,0
2017-05-11T01:35:26.921Z,0
2017-05-11T01:36:26.568Z,0
2017-05-11T01:37:26.935Z,0
2017-05-11T01:38:27.262Z,0
2017-05-11T01:39:27.255Z,0
2017-05-11T01:40:27.003Z,0
2017-05-11T01:41:27.218Z,0
2017-05-11T01:42:26.923Z,0
2017-05-11T01:43:27.238Z,0
2017-05-11T01:44:26.621Z,0
2017-05-11T01:45:27.244Z,0
2017-05-11T01:46:27.244Z,0
2017-05-11T01:47:27.253Z,0
2017-05-11T01:48:27.010Z,0
2017-05-11T01:49:27.320Z,0
2017-05-11T01:50:27.279Z,0
2017-05-11T01:51:26.658Z,0
2017-05-11T01:52:27.333Z,0
2017-05-11T01:53:27.298Z,0
2017-05-11T01:54:26.683Z,0
2017-05-11T01:55:27.001Z,0
2017-05-11T01:56:27.313Z,0
2017-05-11T01:57:27.330Z,0
2017-05-11T01:58:27.080Z,0
2017-05-11T01:59:26.713Z,0
2017-05-11T02:00:27.396Z,0
2017-05-11T02:01:27.046Z,0
2017-05-11T02:02:27.354Z,0
2017-05-11T02:03:27.437Z,0
2017-05-11T02:04:27.412Z,0
2017-05-11T02:05:27.069Z,0
2017-05-11T02:06:27.377Z,0
2017-05-11T02:07:27.068Z,0
2017-05-11T02:08:27.076Z,0
2017-05-11T02:09:27.451Z,0
2017-05-11T02:10:27.410Z,0
2017-05-11T02:11:26.789Z,0
2017-05-11T02:12:27.464Z,0
2017-05-11T02:13:27.429Z,0
2017-05-11T02:14:27.479Z,0
2017-05-11T02:18:57.703Z,0
2017-05-11T02:19:13.636Z,0
2017-05-11T02:20:13.640Z,0
2017-05-11T02:21:13.654Z,0
2017-05-11T02:22:13.784Z,0
2017-05-11T02:23:13.669Z,0
2017-05-11T02:24:13.410Z,0
2017-05-11T02:25:13.987Z,0
2017-05-11T02:26:13.676Z,0
2017-05-11T02:27:13.688Z,0
2017-05-11T02:28:14.060Z,0
2017-05-11T02:29:13.394Z,0
2017-05-11T02:30:13.399Z,0
2017-05-11T02:31:13.718Z,0
2017-05-11T02:32:14.077Z,0
2017-05-11T02:33:14.035Z,0
2017-05-11T02:34:14.042Z,0
2017-05-11T02:35:13.430Z,0
2017-05-11T02:36:13.517Z,0
2017-05-11T02:37:13.764Z,0
2017-05-11T02:38:13.812Z,0
2017-05-11T02:39:14.075Z,0
2017-05-11T02:40:13.875Z,0
2017-05-11T02:41:14.086Z,0
2017-05-11T02:42:13.783Z,0
2017-05-11T02:43:14.104Z,0
2017-05-11T02:44:13.176Z,0
2017-05-11T02:45:13.828Z,0
2017-05-11T02:46:13.807Z,0
2017-05-11T02:47:14.124Z,0
2017-05-11T02:48:13.867Z,0
2017-05-11T02:49:13.830Z,0
2017-05-11T02:50:13.885Z,0
2017-05-11T02:51:14.202Z,0
2017-05-11T02:52:14.167Z,0
2017-05-11T02:53:14.214Z,0
2017-05-11T02:54:14.181Z,0
2017-05-11T02:55:14.178Z,0
2017-05-11T02:56:13.918Z,0
2017-05-11T02:57:14.193Z,0
2017-05-11T02:58:14.203Z,0
2017-05-11T02:59:13.897Z,0
2017-05-11T03:00:14.210Z,0
2017-05-11T03:01:13.915Z,0
2017-05-11T03:02:14.229Z,0
2017-05-11T03:03:13.670Z,0
2017-05-11T03:04:13.928Z,0
2017-05-11T03:05:14.292Z,0
2017-05-11T03:06:13.313Z,0
2017-05-11T03:07:14.256Z,0
2017-05-11T03:08:14.006Z,0
2017-05-11T03:09:13.702Z,0
2017-05-11T03:10:14.375Z,0
2017-05-11T03:11:14.280Z,0
2017-05-11T03:12:14.976Z,0
2017-05-11T03:13:14.300Z,0
2017-05-11T03:14:13.676Z,0
2017-05-11T03:15:14.351Z,0
2017-05-11T03:16:13.738Z,0
2017-05-11T03:17:14.317Z,0
2017-05-11T03:18:14.323Z,0
2017-05-11T03:19:14.028Z,0
2017-05-11T03:20:13.408Z,0
2017-05-11T03:21:14.394Z,0
2017-05-11T03:22:14.404Z,0
2017-05-11T03:23:13.736Z,0
2017-05-11T03:24:14.372Z,0
2017-05-11T03:25:14.157Z,0
2017-05-11T03:26:13.754Z,0
2017-05-11T03:27:14.075Z,0
2017-05-11T03:28:13.453Z,0
2017-05-11T03:29:14.461Z,0
2017-05-11T03:30:14.097Z,0
2017-05-11T03:31:14.102Z,0
2017-05-11T03:32:14.423Z,0
2017-05-11T03:33:14.470Z,0
2017-05-11T03:34:13.804Z,0
2017-05-11T03:35:14.140Z,0
2017-05-11T03:36:14.193Z,0
2017-05-11T03:37:14.134Z,0
2017-05-11T03:38:14.449Z,0
2017-05-11T03:39:14.509Z,0
2017-05-11T03:40:14.166Z,0
2017-05-11T03:41:14.221Z,0
2017-05-11T03:42:14.542Z,0
2017-05-11T03:43:14.190Z,0
2017-05-11T03:44:14.501Z,0
2017-05-11T03:45:14.491Z,0
2017-05-11T03:46:14.223Z,0
2017-05-11T03:47:13.993Z,0
2017-05-11T03:48:14.561Z,0
2017-05-11T03:49:13.899Z,0
2017-05-11T03:50:14.534Z,0
2017-05-11T03:51:14.531Z,0
2017-05-11T03:52:14.243Z,0
2017-05-11T03:53:14.596Z,0
2017-05-11T03:54:14.607Z,0
2017-05-11T03:55:14.596Z,0
2017-05-11T03:56:14.568Z,0
2017-05-11T03:57:13.958Z,5
2017-05-11T03:58:14.324Z,5
2017-05-11T03:59:14.021Z,5
2017-05-11T04:00:14.590Z,5
2017-05-11T04:01:14.694Z,5
2017-05-11T04:02:14.605Z,5
2017-05-11T04:03:14.618Z,5
2017-05-11T04:04:14.355Z,5
2017-05-11T04:05:14.634Z,5
2017-05-11T04:06:14.626Z,5
2017-05-11T04:07:14.328Z,10
2017-05-11T04:08:14.020Z,10
2017-05-11T04:09:14.695Z,10
2017-05-11T04:10:14.724Z,10
2017-05-11T04:11:14.401Z,10
2017-05-11T04:12:14.059Z,10
2017-05-11T04:13:14.377Z,10
2017-05-11T04:14:13.754Z,10
2017-05-11T04:15:14.687Z,10
2017-05-11T04:16:14.445Z,10
2017-05-11T04:17:14.700Z,15
2017-05-11T04:18:14.709Z,15
2017-05-11T04:19:14.778Z,15
2017-05-11T04:20:14.777Z,15
2017-05-11T04:21:14.420Z,15
2017-05-11T04:22:14.173Z,15
2017-05-11T04:23:14.796Z,15
2017-05-11T04:24:13.912Z,15
2017-05-11T04:25:14.754Z,15
2017-05-11T04:26:14.547Z,20
2017-05-11T04:27:14.463Z,20
2017-05-11T04:28:14.774Z,20
2017-05-11T04:29:14.840Z,20
2017-05-11T04:30:14.160Z,25
2017-05-11T04:31:14.788Z,30
2017-05-11T04:32:14.286Z,50
2017-05-11T04:33:14.501Z,70
2017-05-11T04:34:14.818Z,70
2017-05-11T04:35:14.814Z,60
2017-05-11T04:36:14.822Z,65
2017-05-11T04:37:14.833Z,50
2017-05-11T04:38:14.535Z,45
2017-05-11T04:39:14.854Z,50
2017-05-11T04:40:14.229Z,55
2017-05-11T04:41:14.285Z,45
2017-05-11T04:42:14.552Z,55
2017-05-11T04:43:14.878Z,70
2017-05-11T04:44:14.886Z,80
2017-05-11T04:45:14.283Z,100
2017-05-11T04:46:14.942Z,115
2017-05-11T04:47:14.637Z,130
2017-05-11T04:48:14.901Z,135
2017-05-11T04:49:14.935Z,145
2017-05-11T04:50:14.608Z,150
2017-05-11T04:51:14.615Z,155
2017-05-11T04:52:14.629Z,160
2017-05-11T04:53:14.637Z,165
2017-05-11T04:54:14.949Z,170
2017-05-11T04:55:14.970Z,160
2017-05-11T04:56:14.651Z,170
2017-05-11T04:57:14.977Z,160
2017-05-11T04:58:14.675Z,165
2017-05-11T04:59:15.092Z,175
2017-05-11T05:00:14.736Z,150
2017-05-11T05:01:15.051Z,130
2017-05-11T05:02:14.398Z,200
2017-05-11T05:03:15.025Z,225
2017-05-11T05:04:14.461Z,225
2017-05-11T05:05:14.823Z,230
2017-05-11T05:06:14.739Z,230
2017-05-11T05:07:15.053Z,235
2017-05-11T05:08:14.758Z,235
2017-05-11T05:09:15.065Z,205
2017-05-11T05:10:14.195Z,210
2017-05-11T05:11:15.091Z,240
2017-05-11T05:12:14.466Z,225
2017-05-11T05:13:14.790Z,215
2017-05-11T05:14:14.794Z,225
2017-05-11T05:15:14.809Z,250
2017-05-11T05:16:14.546Z,240
2017-05-11T05:17:14.919Z,265
2017-05-11T05:18:14.203Z,280
2017-05-11T05:19:15.163Z,265
2017-05-11T05:20:14.849Z,220
2017-05-11T05:21:14.853Z,290
2017-05-11T05:22:14.878Z,310
2017-05-11T05:23:15.177Z,310
2017-05-11T05:24:14.875Z,310
2017-05-11T05:25:15.300Z,320
2017-05-11T05:26:15.199Z,325
2017-05-11T05:27:14.649Z,335
2017-05-11T05:28:15.021Z,330
2017-05-11T05:29:14.961Z,335
2017-05-11T05:30:14.933Z,355
2017-05-11T05:31:14.939Z,360
2017-05-11T05:32:15.003Z,360
2017-05-11T05:33:14.963Z,360
2017-05-11T05:34:15.325Z,365
2017-05-11T05:35:14.656Z,375
2017-05-11T05:36:14.980Z,380
2017-05-11T05:37:14.976Z,395
2017-05-11T05:38:14.427Z,390
2017-05-11T05:39:15.620Z,375
2017-05-11T05:40:14.702Z,375
2017-05-11T05:41:15.029Z,395
2017-05-11T05:42:15.411Z,405
2017-05-11T05:43:15.043Z,425
2017-05-11T05:44:15.102Z,425
2017-05-11T05:45:14.780Z,425
2017-05-11T05:46:14.759Z,430
2017-05-11T05:47:15.392Z,465
2017-05-11T05:48:15.403Z,440
2017-05-11T05:49:15.408Z,425
2017-05-11T05:50:15.136Z,455
2017-05-11T05:51:15.483Z,460
2017-05-11T05:52:15.184Z,465
2017-05-11T05:53:15.448Z,515
2017-05-11T05:54:15.454Z,520
2017-05-11T05:55:14.846Z,525
2017-05-11T05:56:15.219Z,515
2017-05-11T05:57:15.230Z,515
2017-05-11T05:58:15.542Z,525
2017-05-11T05:59:15.506Z,525
2017-05-11T06:00:14.890Z,515
2017-05-11T06:01:15.826Z,520
2017-05-11T06:02:15.582Z,510
2017-05-11T06:03:15.235Z,485
2017-05-11T06:04:15.556Z,410
2017-05-11T06:05:15.307Z,390
2017-05-11T06:06:15.262Z,440
2017-05-11T06:07:15.271Z,450
2017-05-11T06:08:14.967Z,465
2017-05-11T06:09:15.600Z,495
2017-05-11T06:10:14.992Z,525
2017-05-11T06:11:15.620Z,475
2017-05-11T06:12:15.639Z,450
2017-05-11T06:13:15.342Z,440
2017-05-11T06:14:15.081Z,460
2017-05-11T06:15:15.042Z,490
2017-05-11T06:16:15.704Z,510
2017-05-11T06:17:15.680Z,520
2017-05-11T06:18:15.432Z,545
2017-05-11T06:19:15.705Z,550
2017-05-11T06:20:15.398Z,550
2017-05-11T06:21:15.770Z,530
2017-05-11T06:22:15.471Z,530
2017-05-11T06:23:15.476Z,510
2017-05-11T06:24:15.439Z,515
2017-05-11T06:25:15.138Z,535
2017-05-11T06:26:15.150Z,545
2017-05-11T06:27:15.211Z,590
2017-05-11T06:28:15.843Z,630
2017-05-11T06:29:15.497Z,650
2017-05-11T06:30:15.810Z,675
2017-05-11T06:31:15.821Z,700
2017-05-11T06:32:15.893Z,705
2017-05-11T06:33:15.268Z,685
2017-05-11T06:34:15.230Z,670
2017-05-11T06:35:15.915Z,690
2017-05-11T06:36:15.924Z,730
2017-05-11T06:37:15.627Z,735
2017-05-11T06:38:15.742Z,480
2017-05-11T06:39:15.910Z,515
2017-05-11T06:40:15.605Z,625
2017-05-11T06:41:15.973Z,575
2017-05-11T06:42:15.938Z,690
2017-05-11T06:43:16.002Z,790
2017-05-11T06:44:15.750Z,745
2017-05-11T06:45:15.711Z,780
2017-05-11T06:46:15.731Z,755
2017-05-11T06:47:15.687Z,715
2017-05-11T06:48:15.487Z,750
2017-05-11T06:49:16.039Z,790
2017-05-11T06:50:16.031Z,690
2017-05-11T06:51:16.043Z,790
2017-05-11T06:52:16.102Z,775
2017-05-11T06:53:15.749Z,730
2017-05-11T06:54:15.653Z,725
2017-05-11T06:55:16.187Z,765
2017-05-11T06:56:15.787Z,850
2017-05-11T06:57:15.796Z,840
2017-05-11T06:58:15.857Z,760
2017-05-11T06:59:15.825Z,700
2017-05-11T07:00:16.150Z,770
2017-05-11T07:01:16.161Z,760
2017-05-11T07:02:16.266Z,800
2017-05-11T07:03:15.865Z,815
2017-05-11T07:04:15.883Z,850
2017-05-11T07:05:15.577Z,850
2017-05-11T07:06:16.298Z,895
2017-05-11T07:07:16.223Z,935
2017-05-11T07:08:15.925Z,945
2017-05-11T07:09:16.249Z,950
2017-05-11T07:10:15.685Z,960
2017-05-11T07:11:16.270Z,945
2017-05-11T07:12:15.975Z,975
2017-05-11T07:13:16.297Z,960
2017-05-11T07:14:15.993Z,840
2017-05-11T07:15:16.314Z,795
2017-05-11T07:16:16.326Z,865
2017-05-11T07:17:16.077Z,870
2017-05-11T07:18:16.043Z,885
2017-05-11T07:19:16.049Z,900
2017-05-11T07:20:16.434Z,965
2017-05-11T07:21:16.083Z,1000
2017-05-11T07:22:16.397Z,995
2017-05-11T07:23:16.465Z,975
2017-05-11T07:24:16.158Z,610
2017-05-11T07:25:16.137Z,195
2017-05-11T07:26:16.173Z,75
2017-05-11T07:27:16.198Z,70
2017-05-11T07:28:16.155Z,65
2017-05-11T07:29:16.481Z,65
2017-05-11T07:30:15.916Z,65
2017-05-11T07:31:15.878Z,60
2017-05-11T07:32:16.209Z,60
2017-05-11T07:33:16.367Z,60
2017-05-11T07:34:15.959Z,60
2017-05-11T07:35:16.379Z,60
2017-05-11T07:36:15.981Z,60
2017-05-11T07:37:15.976Z,55
2017-05-11T07:38:16.309Z,55
2017-05-11T07:39:15.956Z,55
2017-05-11T07:40:16.388Z,55
2017-05-11T07:41:15.976Z,55
2017-05-11T07:42:16.295Z,55
2017-05-11T07:43:16.623Z,55
2017-05-11T07:44:16.361Z,55
2017-05-11T07:45:16.664Z,55
2017-05-11T07:46:15.703Z,55
2017-05-11T07:47:16.691Z,55
2017-05-11T07:48:16.078Z,55
2017-05-11T07:49:16.660Z,55
2017-05-11T07:50:16.669Z,55
2017-05-11T07:51:16.155Z,55
2017-05-11T07:52:16.475Z,55
2017-05-11T07:53:16.702Z,55
2017-05-11T07:54:17.004Z,55
2017-05-11T07:55:16.760Z,55
2017-05-11T07:56:16.412Z,55
2017-05-11T07:57:16.421Z,50
2017-05-11T07:58:16.476Z,50
2017-05-11T07:59:16.797Z,50
2017-05-11T08:00:16.129Z,55
2017-05-11T08:01:16.809Z,55
2017-05-11T08:02:16.819Z,55
2017-05-11T08:03:16.778Z,55
2017-05-11T08:04:16.839Z,55
2017-05-11T08:05:16.889Z,55
2017-05-11T08:06:16.190Z,55
2017-05-11T08:07:16.237Z,55
2017-05-11T08:08:16.195Z,55
2017-05-11T08:09:16.824Z,55
2017-05-11T08:10:16.832Z,55
2017-05-11T08:11:16.583Z,55
2017-05-11T08:12:16.535Z,55
2017-05-11T08:13:16.545Z,55
2017-05-11T08:14:17.218Z,55
2017-05-11T08:15:16.664Z,55
2017-05-11T08:16:16.627Z,55
2017-05-11T08:17:16.577Z,55
2017-05-11T08:18:16.720Z,60
2017-05-11T08:19:16.958Z,60
2017-05-11T08:20:16.613Z,60
2017-05-11T08:21:16.671Z,60
2017-05-11T08:22:16.992Z,60
2017-05-11T08:23:16.647Z,60
2017-05-11T08:24:16.318Z,70
2017-05-11T08:25:16.955Z,70
2017-05-11T08:26:16.647Z,75
2017-05-11T08:27:16.712Z,75
2017-05-11T08:28:17.021Z,75
2017-05-11T08:29:17.038Z,80
2017-05-11T08:30:16.993Z,80
2017-05-11T08:31:16.990Z,80
2017-05-11T08:32:15.855Z,80
2017-05-11T08:33:16.372Z,80
2017-05-11T08:34:16.375Z,75
2017-05-11T08:35:17.003Z,75
2017-05-11T08:36:17.017Z,75
2017-05-11T08:37:17.120Z,75
2017-05-11T08:38:17.027Z,75
2017-05-11T08:39:17.026Z,75
2017-05-11T08:40:16.787Z,75
2017-05-11T08:41:17.085Z,75
2017-05-11T08:42:16.470Z,75
2017-05-11T08:43:16.742Z,75
2017-05-11T08:44:16.797Z,75
2017-05-11T08:45:17.055Z,75
2017-05-11T08:46:16.493Z,80
2017-05-11T08:47:16.447Z,80
2017-05-11T08:48:16.139Z,80
2017-05-11T08:49:16.559Z,80
2017-05-11T08:50:16.477Z,85
2017-05-11T08:51:17.133Z,85
2017-05-11T08:52:16.913Z,85
2017-05-11T08:53:17.099Z,80
2017-05-11T08:54:16.788Z,85
2017-05-11T08:55:16.858Z,80
2017-05-11T08:56:16.526Z,85
2017-05-11T08:57:16.913Z,85
2017-05-11T08:58:17.108Z,85
2017-05-11T08:59:17.174Z,85
2017-05-11T09:00:17.196Z,85
2017-05-11T09:01:16.862Z,80
2017-05-11T09:02:16.516Z,80
2017-05-11T09:03:17.240Z,85
2017-05-11T09:04:16.567Z,85
2017-05-11T09:05:16.896Z,85
2017-05-11T09:06:17.154Z,85
2017-05-11T09:07:16.851Z,90
2017-05-11T09:08:17.213Z,90
2017-05-11T09:09:16.882Z,95
2017-05-11T09:10:16.854Z,95
2017-05-11T09:11:17.233Z,100
2017-05-11T09:12:17.260Z,100
2017-05-11T09:13:16.254Z,100
2017-05-11T09:14:16.892Z,105
2017-05-11T09:15:17.214Z,110
2017-05-11T09:16:17.209Z,110
2017-05-11T09:17:16.884Z,110
2017-05-11T09:18:17.204Z,115
2017-05-11T09:19:16.637Z,115
2017-05-11T09:20:16.946Z,120
2017-05-11T09:21:16.903Z,125
2017-05-11T09:22:17.232Z,120
2017-05-11T09:23:17.277Z,120
2017-05-11T09:24:16.972Z,110
2017-05-11T09:25:17.231Z,130
2017-05-11T09:26:17.280Z,130
2017-05-11T09:27:17.245Z,130
2017-05-11T09:28:16.676Z,130
2017-05-11T09:29:17.001Z,130
2017-05-11T09:30:17.356Z,125
2017-05-11T09:31:16.655Z,120
2017-05-11T09:32:16.716Z,125
2017-05-11T09:33:16.966Z,125
2017-05-11T09:34:17.282Z,120
2017-05-11T09:35:17.303Z,120
2017-05-11T09:36:17.297Z,120
2017-05-11T09:37:16.988Z,115
2017-05-11T09:38:17.044Z,115
2017-05-11T09:39:17.087Z,110
2017-05-11T09:40:17.369Z,115
2017-05-11T09:41:17.064Z,110
2017-05-11T09:42:17.080Z,110
2017-05-11T09:43:17.334Z,110
2017-05-11T09:44:17.039Z,110
2017-05-11T09:45:16.833Z,105
2017-05-11T09:46:17.081Z,105
2017-05-11T09:47:17.049Z,95
2017-05-11T09:48:16.788Z,95
2017-05-11T09:49:17.126Z,95
2017-05-11T09:50:16.772Z,95
2017-05-11T09:51:17.385Z,95
2017-05-11T09:52:17.443Z,90
2017-05-11T09:53:17.451Z,85
2017-05-11T09:54:17.231Z,80
2017-05-11T09:55:17.407Z,85
2017-05-11T09:56:17.408Z,85
2017-05-11T09:57:17.104Z,80
2017-05-11T09:58:17.120Z,80
2017-05-11T09:59:16.808Z,85
2017-05-11T10:00:17.126Z,85
2017-05-11T10:01:17.490Z,90
2017-05-11T10:02:17.182Z,90
2017-05-11T10:03:16.831Z,90
2017-05-11T10:04:17.461Z,85
2017-05-11T10:05:17.205Z,80
2017-05-11T10:06:17.173Z,80
2017-05-11T10:07:17.474Z,80
2017-05-11T10:08:17.482Z,80
2017-05-11T10:09:17.187Z,85
2017-05-11T10:10:17.235Z,85
2017-05-11T10:11:17.197Z,90
2017-05-11T10:12:16.885Z,90
2017-05-11T10:13:17.202Z,90
2017-05-11T10:14:17.211Z,90
2017-05-11T10:15:17.264Z,75
2017-05-11T10:16:16.594Z,80
2017-05-11T10:17:17.230Z,100
2017-05-11T10:18:16.620Z,100
2017-05-11T10:19:17.547Z,100
2017-05-11T10:20:17.243Z,100
2017-05-11T10:21:17.257Z,105
2017-05-11T10:22:17.301Z,105
2017-05-11T10:23:16.946Z,105
2017-05-11T10:24:17.275Z,110
2017-05-11T10:25:17.640Z,110
2017-05-11T10:26:17.336Z,105
2017-05-11T10:27:17.354Z,105
2017-05-11T10:28:16.669Z,105
2017-05-11T10:29:16.989Z,105
2017-05-11T10:30:17.355Z,100
2017-05-11T10:31:17.676Z,90
2017-05-11T10:32:17.092Z,90
2017-05-11T10:33:17.323Z,90
2017-05-11T10:34:17.333Z,85
2017-05-11T10:35:17.691Z,90
2017-05-11T10:36:17.348Z,90
2017-05-11T10:37:17.441Z,90
2017-05-11T10:38:17.665Z,80
2017-05-11T10:39:17.358Z,85
2017-05-11T10:40:17.056Z,80
2017-05-11T10:41:17.683Z,75
2017-05-11T10:42:17.110Z,70
2017-05-11T10:43:17.383Z,70
2017-05-11T10:44:17.434Z,70
2017-05-11T10:45:17.396Z,65
2017-05-11T10:46:17.086Z,70
2017-05-11T10:47:17.765Z,70
2017-05-11T10:48:17.711Z,70
2017-05-11T10:49:17.549Z,80
2017-05-11T10:50:17.111Z,85
2017-05-11T10:51:17.484Z,90
2017-05-11T10:52:17.127Z,90
2017-05-11T10:53:17.126Z,95
2017-05-11T10:54:17.501Z,95
2017-05-11T10:55:17.189Z,90
2017-05-11T10:56:17.555Z,85
2017-05-11T10:57:17.885Z,85
2017-05-11T10:58:17.483Z,95
2017-05-11T10:59:17.525Z,90
2017-05-11T11:00:17.276Z,90
2017-05-11T11:01:17.486Z,85
2017-05-11T11:02:17.491Z,80
2017-05-11T11:03:17.551Z,80
2017-05-11T11:04:17.196Z,80
2017-05-11T11:05:17.199Z,80
2017-05-11T11:06:17.513Z,65
2017-05-11T11:07:17.877Z,65
2017-05-11T11:08:17.217Z,65
2017-05-11T11:09:17.526Z,70
2017-05-11T11:10:17.584Z,70
2017-05-11T11:11:17.855Z,75
2017-05-11T11:12:17.967Z,75
2017-05-11T11:13:17.901Z,80
2017-05-11T11:14:18.062Z,75
2017-05-11T11:15:17.870Z,80
2017-05-11T11:16:17.625Z,80
2017-05-11T11:17:17.259Z,80
2017-05-11T11:18:17.887Z,80
2017-05-11T11:19:17.277Z,80
2017-05-11T11:20:17.983Z,65
2017-05-11T11:21:17.749Z,70
2017-05-11T11:22:17.287Z,65
2017-05-11T11:23:17.966Z,70
2017-05-11T11:24:17.703Z,70
2017-05-11T11:25:17.979Z,70
2017-05-11T11:26:17.734Z,80
2017-05-11T11:27:17.952Z,75
2017-05-11T11:28:17.377Z,65
2017-05-11T11:29:18.025Z,65
2017-05-11T11:30:18.007Z,75
2017-05-11T11:31:17.968Z,75
2017-05-11T11:32:17.753Z,75
2017-05-11T11:33:17.356Z,65
2017-05-11T11:34:17.717Z,60
2017-05-11T11:35:18.012Z,65
2017-05-11T11:36:17.370Z,75
2017-05-11T11:37:18.080Z,70
2017-05-11T11:38:17.381Z,75
2017-05-11T11:39:17.752Z,75
2017-05-11T11:40:17.699Z,75
2017-05-11T11:41:18.071Z,80
2017-05-11T11:42:17.718Z,80
2017-05-11T11:43:17.735Z,80
2017-05-11T11:44:17.778Z,80
2017-05-11T11:45:17.780Z,80
2017-05-11T11:46:17.734Z,80
2017-05-11T11:47:17.743Z,75
2017-05-11T11:48:17.747Z,75
2017-05-11T11:49:17.760Z,75
2017-05-11T11:50:17.810Z,75
2017-05-11T11:51:18.071Z,70
2017-05-11T11:52:18.178Z,70
2017-05-11T11:53:18.221Z,65
2017-05-11T11:54:17.520Z,65
2017-05-11T11:55:17.782Z,70
2017-05-11T11:56:17.163Z,60
2017-05-11T11:57:17.789Z,60
2017-05-11T11:58:18.211Z,55
2017-05-11T11:59:18.113Z,55
2017-05-11T12:00:17.909Z,55
2017-05-11T12:01:17.841Z,50
2017-05-11T12:02:17.826Z,50
2017-05-11T12:03:17.864Z,45
2017-05-11T12:04:17.656Z,45
2017-05-11T12:05:17.930Z,45
2017-05-11T12:06:17.835Z,45
2017-05-11T12:07:17.848Z,35
2017-05-11T12:08:17.847Z,40
2017-05-11T12:09:18.154Z,50
2017-05-11T12:10:17.271Z,50
2017-05-11T12:11:17.903Z,50
2017-05-11T12:12:17.863Z,50
2017-05-11T12:13:17.549Z,50
2017-05-11T12:14:18.186Z,50
2017-05-11T12:15:17.871Z,50
2017-05-11T12:16:17.881Z,55
2017-05-11T12:17:18.377Z,55
2017-05-11T12:18:18.204Z,55
2017-05-11T12:19:17.903Z,55
2017-05-11T12:20:18.245Z,55
2017-05-11T12:21:17.601Z,50
2017-05-11T12:22:18.151Z,50
2017-05-11T12:23:17.707Z,50
2017-05-11T12:24:17.646Z,45
2017-05-11T12:25:18.006Z,45
2017-05-11T12:26:17.954Z,50
2017-05-11T12:27:17.955Z,50
2017-05-11T12:28:17.663Z,45
2017-05-11T12:29:17.662Z,45
2017-05-11T12:30:18.291Z,45
2017-05-11T12:31:17.982Z,45
2017-05-11T12:32:17.776Z,50
2017-05-11T12:33:18.307Z,45
2017-05-11T12:34:18.314Z,50
2017-05-11T12:35:18.025Z,50
2017-05-11T12:36:18.078Z,55
2017-05-11T12:37:17.766Z,55
2017-05-11T12:38:17.408Z,55
2017-05-11T12:39:18.040Z,60
2017-05-11T12:40:18.364Z,60
2017-05-11T12:41:18.367Z,60
2017-05-11T12:42:18.381Z,55
2017-05-11T12:43:17.765Z,55
2017-05-11T12:44:18.080Z,55
2017-05-11T12:45:18.467Z,55
2017-05-11T12:46:18.092Z,50
2017-05-11T12:47:18.430Z,50
2017-05-11T12:48:17.168Z,50
2017-05-11T12:49:18.420Z,45
2017-05-11T12:50:18.432Z,45
2017-05-11T12:51:17.815Z,50
2017-05-11T12:52:18.135Z,50
2017-05-11T12:53:18.468Z,50
2017-05-11T12:54:18.507Z,50
2017-05-11T12:55:18.521Z,50
2017-05-11T12:56:18.610Z,55
2017-05-11T12:57:18.172Z,60
2017-05-11T12:58:18.176Z,60
2017-05-11T12:59:17.558Z,60
2017-05-11T13:00:18.189Z,65
2017-05-11T13:01:18.195Z,65
2017-05-11T13:02:18.518Z,70
2017-05-11T13:03:18.214Z,70
2017-05-11T13:04:18.529Z,70
2017-05-11T13:05:18.224Z,65
2017-05-11T13:06:17.919Z,65
2017-05-11T13:07:18.245Z,70
2017-05-11T13:08:17.937Z,70
2017-05-11T13:09:18.263Z,60
2017-05-11T13:10:18.578Z,60
2017-05-11T13:11:18.267Z,60
2017-05-11T13:12:18.328Z,60
2017-05-11T13:13:18.394Z,60
2017-05-11T13:14:17.979Z,60
2017-05-11T13:15:18.296Z,60
2017-05-11T13:16:17.997Z,60
2017-05-11T13:17:18.006Z,60
2017-05-11T13:18:18.829Z,55
2017-05-11T13:19:18.018Z,55
2017-05-11T13:20:18.704Z,60
2017-05-11T13:21:18.710Z,60
2017-05-11T13:22:18.083Z,60
2017-05-11T13:23:17.795Z,65
2017-05-11T13:24:18.053Z,70
2017-05-11T13:25:18.415Z,65
2017-05-11T13:26:18.443Z,65
2017-05-11T13:27:18.390Z,55
2017-05-11T13:28:18.091Z,60
2017-05-11T13:29:18.143Z,60
2017-05-11T13:30:18.102Z,55
2017-05-11T13:31:18.524Z,55
2017-05-11T13:32:18.121Z,55
2017-05-11T13:33:18.496Z,55
2017-05-11T13:34:17.821Z,55
2017-05-11T13:35:18.762Z,50
2017-05-11T13:36:19.168Z,50
2017-05-11T13:37:18.203Z,45
2017-05-11T13:38:18.208Z,45
2017-05-11T13:39:18.528Z,45
2017-05-11T13:40:18.798Z,45
2017-05-11T13:41:18.857Z,50
2017-05-11T13:42:18.188Z,50
2017-05-11T13:43:19.121Z,50
2017-05-11T13:44:18.208Z,50
2017-05-11T13:45:18.525Z,50
2017-05-11T13:46:18.223Z,50
2017-05-11T13:47:18.859Z,50
2017-05-11T13:48:18.242Z,45
2017-05-11T13:49:18.616Z,45
2017-05-11T13:50:18.276Z,40
2017-05-11T13:51:18.887Z,40
2017-05-11T13:52:18.267Z,40
2017-05-11T13:53:18.333Z,40
2017-05-11T13:54:18.596Z,40
2017-05-11T13:55:18.600Z,40
2017-05-11T13:56:18.916Z,40
2017-05-11T13:57:18.943Z,40
2017-05-11T13:58:18.936Z,40
2017-05-11T13:59:18.682Z,40
2017-05-11T14:00:18.691Z,40
2017-05-11T14:01:18.700Z,45
2017-05-11T14:02:18.029Z,45
2017-05-11T14:03:18.402Z,45
2017-05-11T14:04:18.669Z,45
2017-05-11T14:05:18.738Z,45
2017-05-11T14:06:19.092Z,45
2017-05-11T14:07:18.385Z,45
2017-05-11T14:08:18.399Z,45
2017-05-11T14:09:18.706Z,50
2017-05-11T14:10:19.082Z,50
2017-05-11T14:11:19.024Z,50
2017-05-11T14:12:19.038Z,45
2017-05-11T14:13:19.097Z,45
2017-05-11T14:14:18.478Z,45
2017-05-11T14:15:18.490Z,50
2017-05-11T14:16:19.065Z,45
2017-05-11T14:17:18.764Z,45
2017-05-11T14:18:18.816Z,45
2017-05-11T14:19:18.520Z,45